createdAt,value
2019-02-24T00:02:08.538Z,96656.59
2019-02-24T00:04:35.064Z,96650.94
2019-02-24T00:07:01.572Z,96650.56
2019-02-24T00:09:28.003Z,96652.81
2019-02-24T00:11:54.435Z,96661.12
2019-02-24T00:14:20.863Z,96653.72
2019-02-24T00:16:47.289Z,96652.28
2019-02-24T00:19:13.704Z,96651.55
2019-02-24T00:21:40.193Z,96654.55
2019-02-24T00:24:06.617Z,96652.03
2019-02-24T00:26:33.092Z,96652.74
2019-02-24T00:28:59.551Z,96650.29
2019-02-24T00:31:25.976Z,96652.84
2019-02-24T00:33:52.399Z,96653.41
2019-02-24T00:36:18.930Z,96650.43
2019-02-24T00:38:45.361Z,96647.71
2019-02-24T00:41:11.822Z,96651.91
2019-02-24T00:43:38.240Z,96651.38
2019-02-24T00:46:04.765Z,96644.73
2019-02-24T00:48:31.195Z,96654.52
2019-02-24T00:50:57.622Z,96661.09
2019-02-24T00:53:24.095Z,96659.80
2019-02-24T00:55:50.601Z,96662.50
2019-02-24T00:58:17.026Z,96663.33
2019-02-24T01:00:43.453Z,96669.84
2019-02-24T01:03:09.879Z,96667.12
2019-02-24T01:05:36.807Z,96672.14
2019-02-24T01:08:03.711Z,96671.10
2019-02-24T01:10:30.541Z,96672.94
2019-02-24T01:12:57.344Z,96670.48
2019-02-24T01:15:23.909Z,96664.14
2019-02-24T01:17:50.340Z,96658.55
2019-02-24T01:20:16.766Z,96653.67
2019-02-24T01:22:43.190Z,96658.79
2019-02-24T01:25:10.007Z,96648.00
2019-02-24T01:27:36.536Z,96651.39
2019-02-24T01:30:04.178Z,96652.45
2019-02-24T01:32:30.611Z,96657.67
2019-02-24T01:34:57.120Z,96668.45
2019-02-24T01:37:23.545Z,96662.35
2019-02-24T01:39:49.978Z,96666.86
2019-02-24T01:42:16.448Z,96681.30
2019-02-24T01:44:43.059Z,96676.22
2019-02-24T01:47:09.486Z,96677.54
2019-02-24T01:49:35.915Z,96673.81
2019-02-24T01:52:02.645Z,96676.69
2019-02-24T01:54:29.078Z,96675.98
2019-02-24T01:56:55.893Z,96681.27
2019-02-24T01:59:22.317Z,96681.23
2019-02-24T02:01:48.748Z,96681.43
2019-02-24T02:04:15.171Z,96688.39
2019-02-24T02:06:41.721Z,96688.69
2019-02-24T02:09:08.414Z,96693.52
2019-02-24T02:11:34.846Z,96697.02
2019-02-24T02:14:01.281Z,96707.33
2019-02-24T02:16:27.720Z,96700.48
2019-02-24T02:18:54.145Z,96707.18
2019-02-24T02:21:20.902Z,96703.39
2019-02-24T02:23:47.314Z,96698.59
2019-02-24T02:26:13.766Z,96699.19
2019-02-24T02:28:44.014Z,96703.67
2019-02-24T02:31:08.572Z,96707.36
2019-02-24T02:33:35.044Z,96704.79
2019-02-24T02:36:01.546Z,96705.97
2019-02-24T02:38:27.974Z,96709.14
2019-02-24T02:40:54.404Z,96707.96
2019-02-24T02:43:20.863Z,96703.84
2019-02-24T02:45:47.389Z,96707.25
2019-02-24T02:48:13.824Z,96711.72
2019-02-24T02:50:40.247Z,96706.91
2019-02-24T02:53:06.692Z,96713.70
2019-02-24T02:55:33.216Z,96718.58
2019-02-24T02:57:59.724Z,96715.68
2019-02-24T03:00:30.896Z,96725.75
2019-02-24T03:02:57.431Z,96727.61
2019-02-24T03:05:23.966Z,96727.09
2019-02-24T03:07:52.271Z,96724.69
2019-02-24T03:10:18.701Z,96739.09
2019-02-24T03:12:45.135Z,96736.96
2019-02-24T03:15:11.660Z,96729.00
2019-02-24T03:17:38.090Z,96726.30
2019-02-24T03:20:04.618Z,96740.53
2019-02-24T03:22:31.051Z,96742.55
2019-02-24T03:24:57.487Z,96750.83
2019-02-24T03:27:23.935Z,96749.75
2019-02-24T03:29:50.396Z,96755.29
2019-02-24T03:32:16.822Z,96758.72
2019-02-24T03:34:43.322Z,96767.55
2019-02-24T03:37:09.741Z,96760.09
2019-02-24T03:39:36.165Z,96762.52
2019-02-24T03:42:02.594Z,96768.03
2019-02-24T03:44:29.052Z,96766.91
2019-02-24T03:46:55.493Z,96769.41
2019-02-24T03:49:21.913Z,96772.31
2019-02-24T03:51:48.360Z,96769.64
2019-02-24T03:54:14.758Z,96772.90
2019-02-24T03:56:41.230Z,96775.81
2019-02-24T03:59:15.186Z,96779.58
2019-02-24T04:01:36.258Z,96783.78
2019-02-24T04:04:02.781Z,96783.59
2019-02-24T04:06:29.317Z,96795.21
2019-02-24T04:08:55.813Z,96792.02
2019-02-24T04:11:22.258Z,96795.23
2019-02-24T04:13:48.665Z,96798.02
2019-02-24T04:16:15.154Z,96805.42
2019-02-24T04:18:41.591Z,96801.27
2019-02-24T04:21:08.007Z,96797.70
2019-02-24T04:23:34.441Z,96802.03
2019-02-24T04:26:00.885Z,96804.66
2019-02-24T04:28:27.307Z,96808.66
2019-02-24T04:30:53.743Z,96805.13
2019-02-24T04:33:20.244Z,96801.14
2019-02-24T04:35:46.747Z,96808.84
2019-02-24T04:38:13.179Z,96820.66
2019-02-24T04:40:39.607Z,96821.00
2019-02-24T04:43:06.038Z,96821.81
2019-02-24T04:45:32.552Z,96822.04
2019-02-24T04:47:58.974Z,96826.09
2019-02-24T04:50:25.405Z,96830.55
2019-02-24T04:52:51.835Z,96837.10
2019-02-24T04:55:18.288Z,96836.03
2019-02-24T04:57:44.715Z,96836.19
2019-02-24T05:00:11.238Z,96838.31
2019-02-24T05:02:37.663Z,96840.28
2019-02-24T05:05:04.808Z,96838.38
2019-02-24T05:07:31.332Z,96837.86
2019-02-24T05:09:57.831Z,96834.81
2019-02-24T05:12:24.253Z,96840.20
2019-02-24T05:14:50.782Z,96842.77
2019-02-24T05:17:17.208Z,96845.58
2019-02-24T05:19:43.630Z,96847.43
2019-02-24T05:22:10.057Z,96849.30
2019-02-24T05:24:36.522Z,96849.29
2019-02-24T05:27:02.944Z,96841.59
2019-02-24T05:29:29.376Z,96853.05
2019-02-24T05:31:55.787Z,96851.37
2019-02-24T05:34:22.249Z,96857.81
2019-02-24T05:36:48.709Z,96864.57
2019-02-24T05:39:15.135Z,96863.43
2019-02-24T05:41:41.558Z,96867.63
2019-02-24T05:44:07.987Z,96864.86
2019-02-24T05:46:34.490Z,96865.55
2019-02-24T05:49:00.915Z,96860.61
2019-02-24T05:51:27.340Z,96865.66
2019-02-24T05:53:53.768Z,96861.45
2019-02-24T05:56:20.257Z,96858.78
2019-02-24T05:58:46.684Z,96867.09
2019-02-24T06:01:13.105Z,96873.86
2019-02-24T06:03:39.528Z,96870.11
2019-02-24T06:06:06.065Z,96876.54
2019-02-24T06:08:32.591Z,96873.38
2019-02-24T06:10:59.057Z,96873.66
2019-02-24T06:13:25.473Z,96873.66
2019-02-24T06:15:51.934Z,96872.58
2019-02-24T06:18:18.356Z,96870.59
2019-02-24T06:20:44.779Z,96873.74
2019-02-24T06:23:11.208Z,96877.02
2019-02-24T06:25:37.673Z,96877.61
2019-02-24T06:28:04.094Z,96886.40
2019-02-24T06:30:30.529Z,96887.66
2019-02-24T06:32:56.954Z,96895.50
2019-02-24T06:35:23.398Z,96894.91
2019-02-24T06:37:49.861Z,96904.25
2019-02-24T06:40:16.288Z,96910.22
2019-02-24T06:42:42.716Z,96908.34
2019-02-24T06:45:09.209Z,96911.72
2019-02-24T06:47:35.631Z,96912.20
2019-02-24T06:50:02.157Z,96919.08
2019-02-24T06:52:28.592Z,96921.31
2019-02-24T06:54:55.071Z,96921.77
2019-02-24T06:57:21.498Z,96929.02
2019-02-24T06:59:47.940Z,96932.06
2019-02-24T07:02:14.387Z,96937.44
2019-02-24T07:04:40.929Z,96935.90
2019-02-24T07:07:07.716Z,96939.53
2019-02-24T07:09:34.214Z,96943.28
2019-02-24T07:12:00.690Z,96933.09
2019-02-24T07:14:27.161Z,96946.41
2019-02-24T07:16:53.608Z,96946.19
2019-02-24T07:19:20.045Z,96946.76
2019-02-24T07:21:46.478Z,96946.55
2019-02-24T07:24:12.992Z,96953.05
2019-02-24T07:26:39.580Z,96954.32
2019-02-24T07:29:06.087Z,96959.22
2019-02-24T07:31:32.517Z,96963.12
2019-02-24T07:33:58.963Z,96952.93
2019-02-24T07:36:25.474Z,96954.46
2019-02-24T07:38:52.055Z,96954.23
2019-02-24T07:41:18.855Z,96950.27
2019-02-24T07:43:45.295Z,96957.95
2019-02-24T07:46:11.831Z,96954.44
2019-02-24T07:48:38.264Z,96957.35
2019-02-24T07:51:04.797Z,96953.20
2019-02-24T07:53:31.270Z,96949.91
2019-02-24T07:55:57.751Z,96951.02
2019-02-24T07:58:24.238Z,96947.28
2019-02-24T08:00:50.680Z,96956.52
2019-02-24T08:03:17.220Z,96956.52
2019-02-24T08:05:43.752Z,96953.80
2019-02-24T08:08:16.198Z,96951.45
2019-02-24T08:10:38.674Z,96955.76
2019-02-24T08:13:05.281Z,96955.02
2019-02-24T08:15:31.799Z,96957.80
2019-02-24T08:17:58.317Z,96959.09
2019-02-24T08:20:24.741Z,96955.48
2019-02-24T08:22:51.177Z,96958.91
2019-02-24T08:25:17.726Z,96957.05
2019-02-24T08:27:49.055Z,96954.64
2019-02-24T08:30:15.482Z,96954.78
2019-02-24T08:32:41.914Z,96956.67
2019-02-24T08:35:08.372Z,96949.22
2019-02-24T08:37:34.804Z,96950.11
2019-02-24T08:40:01.229Z,96946.98
2019-02-24T08:42:27.658Z,96950.49
2019-02-24T08:44:54.144Z,96951.58
2019-02-24T08:47:20.603Z,96958.23
2019-02-24T08:49:47.047Z,96955.61
2019-02-24T08:52:13.480Z,96960.20
2019-02-24T08:54:39.949Z,96954.45
2019-02-24T08:57:06.385Z,96957.48
2019-02-24T08:59:32.814Z,96957.27
2019-02-24T09:01:59.250Z,96952.48
2019-02-24T09:04:25.678Z,96941.82
2019-02-24T09:06:52.105Z,96951.12
2019-02-24T09:09:18.778Z,96943.20
2019-02-24T09:11:45.237Z,96949.30
2019-02-24T09:14:11.736Z,96947.47
2019-02-24T09:16:38.249Z,96943.48
2019-02-24T09:19:04.804Z,96939.41
2019-02-24T09:21:31.302Z,96941.69
2019-02-24T09:23:57.726Z,96950.08
2019-02-24T09:26:24.186Z,96948.22
2019-02-24T09:28:51.027Z,96944.37
2019-02-24T09:31:17.537Z,96944.58
2019-02-24T09:33:43.953Z,96943.97
2019-02-24T09:36:10.443Z,96940.73
2019-02-24T09:38:36.878Z,96940.04
2019-02-24T09:41:03.302Z,96933.50
2019-02-24T09:43:29.723Z,96935.24
2019-02-24T09:45:56.219Z,96933.00
2019-02-24T09:48:22.690Z,96938.65
2019-02-24T09:50:49.111Z,96933.76
2019-02-24T09:53:17.340Z,96934.87
2019-02-24T09:55:43.854Z,96943.06
2019-02-24T09:58:10.278Z,96937.08
2019-02-24T10:00:36.704Z,96941.71
2019-02-24T10:03:03.123Z,96940.12
2019-02-24T10:05:29.591Z,96937.85
2019-02-24T10:07:56.182Z,96939.03
2019-02-24T10:10:22.640Z,96939.53
2019-02-24T10:12:49.062Z,96937.73
2019-02-24T10:15:15.525Z,96939.77
2019-02-24T10:17:42.033Z,96948.91
2019-02-24T10:20:09.828Z,96942.84
2019-02-24T10:22:36.244Z,96944.30
2019-02-24T10:25:05.966Z,96944.59
2019-02-24T10:27:32.799Z,96947.11
2019-02-24T10:29:59.226Z,96948.52
2019-02-24T10:32:25.656Z,96948.38
2019-02-24T10:34:52.112Z,96948.42
2019-02-24T10:37:18.527Z,96943.38
2019-02-24T10:39:44.955Z,96949.09
2019-02-24T10:42:11.381Z,96945.45
2019-02-24T10:44:37.845Z,96951.27
2019-02-24T10:47:04.271Z,96944.20
2019-02-24T10:49:30.945Z,96945.36
2019-02-24T10:51:57.366Z,96940.45
2019-02-24T10:54:23.884Z,96938.55
2019-02-24T10:56:50.317Z,96938.27
2019-02-24T10:59:16.979Z,96939.38
2019-02-24T11:01:43.549Z,96936.22
2019-02-24T11:04:09.979Z,96934.78
2019-02-24T11:06:36.463Z,96936.96
2019-02-24T11:09:05.104Z,96934.34
2019-02-24T11:11:31.672Z,96931.28
2019-02-24T11:13:58.102Z,96937.16
2019-02-24T11:16:24.553Z,96930.72
2019-02-24T11:18:50.985Z,96929.26
2019-02-24T11:21:17.480Z,96931.70
2019-02-24T11:23:44.075Z,96925.89
2019-02-24T11:26:10.599Z,96922.93
2019-02-24T11:28:37.016Z,96926.91
2019-02-24T11:31:03.535Z,96927.71
2019-02-24T11:33:30.024Z,96913.55
2019-02-24T11:35:56.792Z,96917.79
2019-02-24T11:38:23.216Z,96907.70
2019-02-24T11:40:49.637Z,96903.48
2019-02-24T11:43:16.056Z,96902.23
2019-02-24T11:45:42.575Z,96896.03
2019-02-24T11:48:09.298Z,96895.72
2019-02-24T11:50:35.817Z,96897.19
2019-02-24T11:53:02.382Z,96899.62
2019-02-24T11:55:28.822Z,96893.41
2019-02-24T11:57:55.253Z,96890.17
2019-02-24T12:00:21.672Z,96881.05
2019-02-24T12:02:48.096Z,96881.38
2019-02-24T12:05:14.673Z,96882.69
2019-02-24T12:07:41.390Z,96888.21
2019-02-24T12:10:10.226Z,96881.98
2019-02-24T12:12:36.751Z,96881.83
2019-02-24T12:15:06.170Z,96871.55
2019-02-24T12:17:32.752Z,96874.09
2019-02-24T12:19:59.273Z,96863.05
2019-02-24T12:22:25.776Z,96862.84
2019-02-24T12:24:52.462Z,96862.84
2019-02-24T12:27:19.309Z,96870.34
2019-02-24T12:29:45.839Z,96861.22
2019-02-24T12:32:12.268Z,96863.27
2019-02-24T12:34:38.722Z,96863.91
2019-02-24T12:37:05.185Z,96868.23
2019-02-24T12:39:31.619Z,96862.45
2019-02-24T12:41:58.052Z,96862.45
2019-02-24T12:44:24.482Z,96863.72
2019-02-24T12:46:50.908Z,96855.64
2019-02-24T12:49:17.330Z,96857.45
2019-02-24T12:51:43.801Z,96853.64
2019-02-24T12:54:10.278Z,96853.64
2019-02-24T12:56:36.732Z,96856.25
2019-02-24T12:59:03.178Z,96855.34
2019-02-24T13:01:29.616Z,96846.70
2019-02-24T13:03:57.161Z,96844.09
2019-02-24T13:06:23.799Z,96846.58
2019-02-24T13:08:50.336Z,96838.28
2019-02-24T13:11:16.854Z,96848.89
2019-02-24T13:13:43.288Z,96850.51
2019-02-24T13:16:09.738Z,96849.13
2019-02-24T13:18:36.921Z,96842.22
2019-02-24T13:21:04.041Z,96850.58
2019-02-24T13:23:30.673Z,96843.38
2019-02-24T13:25:57.255Z,96837.03
2019-02-24T13:28:23.690Z,96835.32
2019-02-24T13:30:50.209Z,96844.55
2019-02-24T13:33:16.758Z,96844.41
2019-02-24T13:35:43.264Z,96838.91
2019-02-24T13:38:09.691Z,96847.34
2019-02-24T13:40:36.235Z,96831.55
2019-02-24T13:43:02.666Z,96835.09
2019-02-24T13:45:29.196Z,96834.26
2019-02-24T13:47:55.747Z,96833.62
2019-02-24T13:50:22.171Z,96819.90
2019-02-24T13:52:48.698Z,96818.55
2019-02-24T13:55:15.404Z,96818.13
2019-02-24T13:57:42.056Z,96823.72
2019-02-24T14:00:11.698Z,96822.73
2019-02-24T14:02:38.131Z,96824.35
2019-02-24T14:05:04.756Z,96821.69
2019-02-24T14:07:31.177Z,96820.74
2019-02-24T14:09:57.705Z,96817.19
2019-02-24T14:12:24.175Z,96815.86
2019-02-24T14:14:50.808Z,96813.77
2019-02-24T14:17:17.229Z,96809.83
2019-02-24T14:19:43.677Z,96815.42
2019-02-24T14:22:10.115Z,96805.72
2019-02-24T14:24:36.631Z,96802.70
2019-02-24T14:27:03.063Z,96811.91
2019-02-24T14:29:29.758Z,96795.56
2019-02-24T14:31:56.186Z,96792.41
2019-02-24T14:34:22.602Z,96797.59
2019-02-24T14:36:49.047Z,96793.26
2019-02-24T14:39:15.576Z,96790.38
2019-02-24T14:41:41.996Z,96795.05
2019-02-24T14:44:08.414Z,96785.20
2019-02-24T14:46:34.966Z,96780.34
2019-02-24T14:49:01.386Z,96789.84
2019-02-24T14:51:27.832Z,96787.33
2019-02-24T14:53:54.334Z,96783.40
2019-02-24T14:56:20.783Z,96781.71
2019-02-24T14:58:47.211Z,96779.67
2019-02-24T15:01:13.671Z,96779.72
2019-02-24T15:03:40.095Z,96767.30
2019-02-24T15:06:06.920Z,96774.23
2019-02-24T15:08:33.343Z,96775.28
2019-02-24T15:11:00.022Z,96772.95
2019-02-24T15:13:26.483Z,96771.66
2019-02-24T15:15:52.973Z,96765.84
2019-02-24T15:18:19.418Z,96774.54
2019-02-24T15:20:45.830Z,96770.56
2019-02-24T15:23:14.597Z,96772.00
2019-02-24T15:25:41.071Z,96764.57
2019-02-24T15:28:07.495Z,96771.64
2019-02-24T15:30:36.865Z,96765.30
2019-02-24T15:33:03.601Z,96763.29
2019-02-24T15:35:30.067Z,96757.50
2019-02-24T15:37:56.478Z,96758.41
2019-02-24T15:40:22.917Z,96757.36
2019-02-24T15:42:49.954Z,96752.44
2019-02-24T15:45:16.624Z,96750.59
2019-02-24T15:47:43.047Z,96748.31
2019-02-24T15:50:11.074Z,96752.08
2019-02-24T15:52:37.497Z,96750.27
2019-02-24T15:55:06.884Z,96745.08
2019-02-24T15:57:33.302Z,96749.22
2019-02-24T15:59:59.724Z,96753.37
2019-02-24T16:02:26.284Z,96749.13
2019-02-24T16:04:52.799Z,96754.63
2019-02-24T16:07:19.257Z,96744.86
2019-02-24T16:09:45.775Z,96748.98
2019-02-24T16:12:12.302Z,96750.38
2019-02-24T16:14:38.734Z,96742.95
2019-02-24T16:17:05.154Z,96742.48
2019-02-24T16:19:31.578Z,96749.94
2019-02-24T16:21:57.995Z,96746.23
2019-02-24T16:24:24.495Z,96751.22
2019-02-24T16:26:50.916Z,96747.41
2019-02-24T16:29:17.339Z,96744.64
2019-02-24T16:31:43.765Z,96747.58
2019-02-24T16:34:10.342Z,96749.70
2019-02-24T16:36:36.839Z,96722.62
2019-02-24T16:39:03.757Z,96728.21
2019-02-24T16:41:30.198Z,96734.70
2019-02-24T16:43:56.636Z,96728.63
2019-02-24T16:46:23.088Z,96733.38
2019-02-24T16:48:49.510Z,96737.14
2019-02-24T16:51:15.938Z,96740.44
2019-02-24T16:53:42.470Z,96747.65
2019-02-24T16:56:10.027Z,96746.52
2019-02-24T16:58:36.467Z,96750.25
2019-02-24T17:01:03.412Z,96750.07
2019-02-24T17:03:29.943Z,96740.63
2019-02-24T17:05:56.789Z,96749.57
2019-02-24T17:08:23.222Z,96752.52
2019-02-24T17:10:49.867Z,96743.26
2019-02-24T17:13:16.399Z,96744.92
2019-02-24T17:15:42.933Z,96734.30
2019-02-24T17:18:09.470Z,96739.25
2019-02-24T17:20:36.010Z,96740.41
2019-02-24T17:23:02.644Z,96732.19
2019-02-24T17:25:29.289Z,96730.71
2019-02-24T17:27:55.816Z,96733.91
2019-02-24T17:30:23.866Z,96735.97
2019-02-24T17:32:50.629Z,96738.02
2019-02-24T17:35:17.179Z,96750.25
2019-02-24T17:37:43.904Z,96753.03
2019-02-24T17:40:19.325Z,96753.13
2019-02-24T17:42:45.886Z,96757.53
2019-02-24T17:45:13.245Z,96770.91
2019-02-24T17:47:39.880Z,96760.70
2019-02-24T17:50:09.795Z,96763.36
2019-02-24T17:52:36.642Z,96767.94
2019-02-24T17:55:05.316Z,96776.94
2019-02-24T17:57:32.372Z,96772.56
2019-02-24T17:59:58.908Z,96771.47
2019-02-24T18:02:25.443Z,96772.08
2019-02-24T18:04:52.186Z,96772.08
2019-02-24T18:07:18.721Z,96765.78
2019-02-24T18:09:45.669Z,96760.71
2019-02-24T18:12:12.202Z,96768.86
2019-02-24T18:14:38.666Z,96767.30
2019-02-24T18:17:05.274Z,96767.30
2019-02-24T18:19:31.813Z,96764.09
2019-02-24T18:21:58.229Z,96765.54
2019-02-24T18:24:24.885Z,96762.51
2019-02-24T18:26:51.318Z,96769.06
2019-02-24T18:29:17.749Z,96769.06
2019-02-24T18:31:44.170Z,96763.79
2019-02-24T18:34:10.585Z,96763.05
2019-02-24T18:36:37.155Z,96765.39
2019-02-24T18:39:04.831Z,96769.58
2019-02-24T18:41:31.348Z,96778.67
2019-02-24T18:43:57.775Z,96780.12
2019-02-24T18:46:24.238Z,96780.12
2019-02-24T18:48:50.759Z,96792.28
2019-02-24T18:51:17.194Z,96792.28
2019-02-24T18:53:43.727Z,96796.83
2019-02-24T18:56:10.264Z,96795.53
2019-02-24T18:58:36.798Z,96799.14
2019-02-24T19:01:05.024Z,96796.84
2019-02-24T19:03:31.508Z,96800.69
2019-02-24T19:05:57.967Z,96801.38
2019-02-24T19:08:24.475Z,96802.08
2019-02-24T19:10:51.010Z,96798.75
2019-02-24T19:13:17.650Z,96809.53
2019-02-24T19:15:44.102Z,96809.14
2019-02-24T19:18:10.525Z,96803.63
2019-02-24T19:20:37.053Z,96803.95
2019-02-24T19:23:03.588Z,96808.53
2019-02-24T19:25:30.125Z,96808.22
2019-02-24T19:27:56.660Z,96803.33
2019-02-24T19:30:23.094Z,96807.86
2019-02-24T19:32:49.528Z,96806.93
2019-02-24T19:35:17.502Z,96807.23
2019-02-24T19:37:44.035Z,96800.70
2019-02-24T19:40:13.441Z,96816.52
2019-02-24T19:42:40.486Z,96817.32
2019-02-24T19:45:09.990Z,96819.76
2019-02-24T19:47:36.423Z,96814.70
2019-02-24T19:50:05.541Z,96809.84
2019-02-24T19:52:32.055Z,96813.09
2019-02-24T19:54:58.590Z,96813.75
2019-02-24T19:57:25.025Z,96821.43
2019-02-24T19:59:51.770Z,96820.91
2019-02-24T20:02:18.201Z,96825.13
2019-02-24T20:04:44.742Z,96812.61
2019-02-24T20:07:11.578Z,96810.01
2019-02-24T20:09:38.017Z,96805.16
2019-02-24T20:12:04.650Z,96804.97
2019-02-24T20:14:31.185Z,96803.71
2019-02-24T20:16:57.618Z,96806.94
2019-02-24T20:19:24.055Z,96816.70
2019-02-24T20:21:50.588Z,96816.69
2019-02-24T20:24:17.127Z,96818.98
2019-02-24T20:26:43.662Z,96827.39
2019-02-24T20:29:11.326Z,96831.20
2019-02-24T20:31:37.760Z,96830.59
2019-02-24T20:34:04.190Z,96834.42
2019-02-24T20:36:30.725Z,96836.80
2019-02-24T20:38:57.162Z,96831.12
2019-02-24T20:41:23.908Z,96828.02
2019-02-24T20:43:50.436Z,96826.89
2019-02-24T20:46:16.989Z,96825.36
2019-02-24T20:48:43.510Z,96826.45
2019-02-24T20:51:09.943Z,96826.05
2019-02-24T20:53:36.477Z,96825.04
2019-02-24T20:56:03.218Z,96824.91
2019-02-24T20:58:29.657Z,96823.89
2019-02-24T21:00:56.188Z,96825.89
2019-02-24T21:03:22.755Z,96827.09
2019-02-24T21:05:49.366Z,96828.77
2019-02-24T21:08:15.903Z,96823.11
2019-02-24T21:10:42.742Z,96823.64
2019-02-24T21:13:09.282Z,96823.11
2019-02-24T21:15:35.817Z,96829.80
2019-02-24T21:18:04.102Z,96830.23
2019-02-24T21:20:32.981Z,96830.00
2019-02-24T21:23:01.783Z,96828.50
2019-02-24T21:25:28.327Z,96837.96
2019-02-24T21:27:55.050Z,96836.27
2019-02-24T21:30:23.386Z,96843.75
2019-02-24T21:32:49.931Z,96834.86
2019-02-24T21:35:17.456Z,96843.47
2019-02-24T21:37:44.165Z,96839.58
2019-02-24T21:40:18.807Z,96848.28
2019-02-24T21:42:45.530Z,96845.51
2019-02-24T21:45:21.454Z,96844.77
2019-02-24T21:47:48.024Z,96842.03
2019-02-24T21:50:15.791Z,96849.42
2019-02-24T21:52:42.424Z,96846.14
2019-02-24T21:55:09.882Z,96843.80
2019-02-24T21:57:36.316Z,96840.70
2019-02-24T22:00:06.445Z,96848.10
2019-02-24T22:02:32.972Z,96846.03
2019-02-24T22:05:03.911Z,96840.55
2019-02-24T22:07:31.882Z,96854.41
2019-02-24T22:09:58.418Z,96851.96
2019-02-24T22:12:25.054Z,96851.01
2019-02-24T22:14:51.592Z,96848.11
2019-02-24T22:17:18.130Z,96854.77
2019-02-24T22:19:44.662Z,96856.55
2019-02-24T22:22:11.199Z,96858.03
2019-02-24T22:24:37.734Z,96857.84
2019-02-24T22:27:04.171Z,96863.59
2019-02-24T22:29:30.911Z,96856.67
2019-02-24T22:31:59.133Z,96858.20
2019-02-24T22:34:25.619Z,96856.28
2019-02-24T22:36:52.053Z,96859.73
2019-02-24T22:39:18.491Z,96858.28
2019-02-24T22:41:46.763Z,96856.44
2019-02-24T22:44:13.300Z,96861.55
2019-02-24T22:46:39.834Z,96856.18
2019-02-24T22:49:06.268Z,96851.89
2019-02-24T22:51:33.321Z,96856.17
2019-02-24T22:53:59.879Z,96851.23
2019-02-24T22:56:26.490Z,96853.23
2019-02-24T22:58:52.923Z,96857.29
2019-02-24T23:01:22.062Z,96852.00
2019-02-24T23:03:48.558Z,96853.06
2019-02-24T23:06:15.092Z,96853.78
2019-02-24T23:08:41.638Z,96854.22
2019-02-24T23:11:08.268Z,96859.91
2019-02-24T23:13:34.802Z,96854.30
2019-02-24T23:16:01.437Z,96863.28
2019-02-24T23:18:27.877Z,96868.30
2019-02-24T23:20:54.407Z,96866.68
2019-02-24T23:23:20.943Z,96868.02
2019-02-24T23:25:47.480Z,96871.27
2019-02-24T23:28:14.017Z,96863.21
2019-02-24T23:30:40.452Z,96865.61
2019-02-24T23:33:06.886Z,96862.27
2019-02-24T23:35:33.520Z,96871.62
2019-02-24T23:37:59.958Z,96862.64
2019-02-24T23:40:26.387Z,96865.56
2019-02-24T23:42:52.821Z,96865.66
2019-02-24T23:45:19.278Z,96871.64
2019-02-24T23:47:45.790Z,96870.64
2019-02-24T23:50:12.224Z,96871.09
2019-02-24T23:52:40.197Z,96865.98
2019-02-24T23:55:07.858Z,96867.57
2019-02-24T23:57:34.292Z,96868.42
